sensor_id;sensor_type;location;lat;lon;timestamp;P1;durP1;ratioP1;P2;durP2;ratioP2
769;SDS011;368;48.698;9.116;2023-02-26T00:00:04;2.87;;;2.57;;
769;SDS011;368;48.698;9.116;2023-02-26T00:02:38;4.80;;;2.70;;
769;SDS011;368;48.698;9.116;2023-02-26T00:05:05;4.40;;;2.93;;
769;SDS011;368;48.698;9.116;2023-02-26T00:07:32;4.50;;;2.80;;
769;SDS011;368;48.698;9.116;2023-02-26T00:09:59;3.72;;;2.90;;
769;SDS011;368;48.698;9.116;2023-02-26T00:12:27;3.77;;;3.00;;
769;SDS011;368;48.698;9.116;2023-02-26T00:14:54;3.33;;;3.00;;
769;SDS011;368;48.698;9.116;2023-02-26T00:17:26;3.50;;;2.70;;
769;SDS011;368;48.698;9.116;2023-02-26T00:20:07;6.20;;;2.90;;
769;SDS011;368;48.698;9.116;2023-02-26T00:22:36;4.57;;;3.30;;
769;SDS011;368;48.698;9.116;2023-02-26T00:25:04;3.13;;;2.83;;
769;SDS011;368;48.698;9.116;2023-02-26T00:27:31;5.05;;;3.10;;
769;SDS011;368;48.698;9.116;2023-02-26T00:29:58;4.38;;;3.10;;
769;SDS011;368;48.698;9.116;2023-02-26T00:32:25;5.95;;;3.30;;
769;SDS011;368;48.698;9.116;2023-02-26T00:34:53;3.42;;;3.05;;
769;SDS011;368;48.698;9.116;2023-02-26T00:37:29;3.20;;;2.88;;
769;SDS011;368;48.698;9.116;2023-02-26T00:40:19;3.58;;;2.95;;
769;SDS011;368;48.698;9.116;2023-02-26T00:42:53;3.50;;;2.95;;
769;SDS011;368;48.698;9.116;2023-02-26T00:45:20;3.38;;;3.00;;
769;SDS011;368;48.698;9.116;2023-02-26T00:47:48;5.68;;;3.33;;
769;SDS011;368;48.698;9.116;2023-02-26T00:50:20;3.58;;;3.00;;
769;SDS011;368;48.698;9.116;2023-02-26T00:52:54;6.63;;;3.15;;
769;SDS011;368;48.698;9.116;2023-02-26T00:55:28;4.00;;;2.60;;
769;SDS011;368;48.698;9.116;2023-02-26T00:57:55;5.47;;;3.47;;
769;SDS011;368;48.698;9.116;2023-02-26T01:00:22;3.47;;;3.17;;
769;SDS011;368;48.698;9.116;2023-02-26T01:02:49;3.28;;;2.97;;
769;SDS011;368;48.698;9.116;2023-02-26T01:05:16;2.72;;;2.53;;
769;SDS011;368;48.698;9.116;2023-02-26T01:07:45;4.25;;;3.40;;
769;SDS011;368;48.698;9.116;2023-02-26T01:10:20;3.85;;;2.90;;
769;SDS011;368;48.698;9.116;2023-02-26T01:12:47;5.40;;;2.97;;
769;SDS011;368;48.698;9.116;2023-02-26T01:15:15;3.42;;;3.13;;
769;SDS011;368;48.698;9.116;2023-02-26T01:17:43;3.67;;;3.03;;
769;SDS011;368;48.698;9.116;2023-02-26T01:20:15;4.82;;;3.63;;
769;SDS011;368;48.698;9.116;2023-02-26T01:22:45;3.92;;;2.80;;
769;SDS011;368;48.698;9.116;2023-02-26T01:25:18;3.75;;;3.25;;
769;SDS011;368;48.698;9.116;2023-02-26T01:27:49;3.80;;;3.00;;
769;SDS011;368;48.698;9.116;2023-02-26T01:30:17;3.60;;;3.00;;
769;SDS011;368;48.698;9.116;2023-02-26T01:32:45;5.93;;;3.67;;
769;SDS011;368;48.698;9.116;2023-02-26T01:35:20;5.97;;;3.30;;
769;SDS011;368;48.698;9.116;2023-02-26T01:37:56;3.47;;;3.05;;
769;SDS011;368;48.698;9.116;2023-02-26T01:40:33;5.60;;;3.42;;
769;SDS011;368;48.698;9.116;2023-02-26T01:43:11;5.75;;;4.25;;
769;SDS011;368;48.698;9.116;2023-02-26T01:45:49;5.00;;;3.55;;
769;SDS011;368;48.698;9.116;2023-02-26T01:48:21;6.22;;;3.85;;
769;SDS011;368;48.698;9.116;2023-02-26T01:50:59;4.25;;;3.30;;
769;SDS011;368;48.698;9.116;2023-02-26T01:53:26;5.22;;;3.30;;
769;SDS011;368;48.698;9.116;2023-02-26T01:55:56;6.47;;;3.47;;
769;SDS011;368;48.698;9.116;2023-02-26T01:58:27;3.70;;;2.90;;
769;SDS011;368;48.698;9.116;2023-02-26T02:00:58;4.25;;;3.05;;
769;SDS011;368;48.698;9.116;2023-02-26T02:03:26;3.17;;;2.88;;
769;SDS011;368;48.698;9.116;2023-02-26T02:05:55;4.60;;;3.60;;
769;SDS011;368;48.698;9.116;2023-02-26T02:08:25;3.72;;;3.20;;
769;SDS011;368;48.698;9.116;2023-02-26T02:10:52;3.67;;;2.88;;
769;SDS011;368;48.698;9.116;2023-02-26T02:13:24;4.13;;;3.25;;
769;SDS011;368;48.698;9.116;2023-02-26T02:16:03;3.42;;;3.13;;
769;SDS011;368;48.698;9.116;2023-02-26T02:18:42;3.40;;;2.90;;
769;SDS011;368;48.698;9.116;2023-02-26T02:21:28;3.67;;;3.10;;
769;SDS011;368;48.698;9.116;2023-02-26T02:24:22;4.40;;;2.90;;
769;SDS011;368;48.698;9.116;2023-02-26T02:27:01;3.83;;;3.42;;
769;SDS011;368;48.698;9.116;2023-02-26T02:32:44;5.20;;;3.30;;
769;SDS011;368;48.698;9.116;2023-02-26T02:35:16;3.45;;;3.10;;
769;SDS011;368;48.698;9.116;2023-02-26T02:37:47;4.30;;;3.15;;
769;SDS011;368;48.698;9.116;2023-02-26T02:40:19;7.30;;;3.78;;
769;SDS011;368;48.698;9.116;2023-02-26T02:42:51;4.22;;;2.80;;
769;SDS011;368;48.698;9.116;2023-02-26T02:45:24;4.40;;;3.30;;
769;SDS011;368;48.698;9.116;2023-02-26T02:47:57;3.83;;;3.40;;
769;SDS011;368;48.698;9.116;2023-02-26T02:50:29;3.47;;;3.17;;
769;SDS011;368;48.698;9.116;2023-02-26T02:53:01;4.25;;;2.83;;
769;SDS011;368;48.698;9.116;2023-02-26T02:55:33;3.50;;;3.17;;
769;SDS011;368;48.698;9.116;2023-02-26T02:58:04;5.28;;;3.70;;
769;SDS011;368;48.698;9.116;2023-02-26T03:00:34;7.65;;;3.75;;
769;SDS011;368;48.698;9.116;2023-02-26T03:03:12;3.35;;;3.08;;
769;SDS011;368;48.698;9.116;2023-02-26T03:05:44;6.80;;;3.75;;
769;SDS011;368;48.698;9.116;2023-02-26T03:08:12;4.65;;;3.10;;
769;SDS011;368;48.698;9.116;2023-02-26T03:10:42;6.32;;;3.75;;
769;SDS011;368;48.698;9.116;2023-02-26T03:13:13;5.65;;;2.97;;
769;SDS011;368;48.698;9.116;2023-02-26T03:15:43;5.85;;;2.90;;
769;SDS011;368;48.698;9.116;2023-02-26T03:18:20;3.30;;;2.70;;
769;SDS011;368;48.698;9.116;2023-02-26T03:20:58;6.60;;;3.70;;
769;SDS011;368;48.698;9.116;2023-02-26T03:23:32;3.90;;;3.00;;
769;SDS011;368;48.698;9.116;2023-02-26T03:26:02;5.32;;;3.80;;
769;SDS011;368;48.698;9.116;2023-02-26T03:28:37;5.50;;;3.53;;
769;SDS011;368;48.698;9.116;2023-02-26T03:31:12;4.05;;;2.88;;
769;SDS011;368;48.698;9.116;2023-02-26T03:33:46;7.50;;;3.13;;
769;SDS011;368;48.698;9.116;2023-02-26T03:36:19;4.57;;;3.40;;
769;SDS011;368;48.698;9.116;2023-02-26T03:38:50;3.45;;;3.15;;
769;SDS011;368;48.698;9.116;2023-02-26T03:41:22;6.43;;;3.30;;
769;SDS011;368;48.698;9.116;2023-02-26T03:43:55;3.60;;;2.80;;
769;SDS011;368;48.698;9.116;2023-02-26T03:46:26;3.75;;;3.13;;
769;SDS011;368;48.698;9.116;2023-02-26T03:48:57;5.32;;;3.22;;
769;SDS011;368;48.698;9.116;2023-02-26T03:51:28;6.53;;;3.70;;
769;SDS011;368;48.698;9.116;2023-02-26T03:53:57;3.17;;;2.95;;
769;SDS011;368;48.698;9.116;2023-02-26T03:56:29;2.92;;;2.72;;
769;SDS011;368;48.698;9.116;2023-02-26T03:59:00;4.63;;;3.20;;
769;SDS011;368;48.698;9.116;2023-02-26T04:01:28;4.00;;;3.63;;
769;SDS011;368;48.698;9.116;2023-02-26T04:04:00;4.00;;;2.80;;
769;SDS011;368;48.698;9.116;2023-02-26T04:06:31;6.15;;;3.35;;
769;SDS011;368;48.698;9.116;2023-02-26T04:08:59;3.97;;;2.85;;
769;SDS011;368;48.698;9.116;2023-02-26T04:11:27;3.53;;;3.22;;
769;SDS011;368;48.698;9.116;2023-02-26T04:13:55;2.92;;;2.72;;
769;SDS011;368;48.698;9.116;2023-02-26T04:16:22;4.55;;;3.70;;
769;SDS011;368;48.698;9.116;2023-02-26T04:18:49;4.35;;;3.20;;
769;SDS011;368;48.698;9.116;2023-02-26T04:21:19;4.38;;;3.63;;
769;SDS011;368;48.698;9.116;2023-02-26T04:23:47;4.25;;;3.53;;
769;SDS011;368;48.698;9.116;2023-02-26T04:26:14;3.75;;;3.20;;
769;SDS011;368;48.698;9.116;2023-02-26T04:28:40;6.20;;;3.10;;
769;SDS011;368;48.698;9.116;2023-02-26T04:31:07;3.65;;;3.20;;
769;SDS011;368;48.698;9.116;2023-02-26T04:33:34;3.45;;;3.15;;
769;SDS011;368;48.698;9.116;2023-02-26T04:36:01;5.63;;;3.90;;
769;SDS011;368;48.698;9.116;2023-02-26T04:38:30;5.30;;;3.58;;
769;SDS011;368;48.698;9.116;2023-02-26T04:40:57;3.65;;;3.40;;
769;SDS011;368;48.698;9.116;2023-02-26T04:43:23;5.70;;;3.70;;
769;SDS011;368;48.698;9.116;2023-02-26T04:45:50;3.13;;;2.88;;
769;SDS011;368;48.698;9.116;2023-02-26T04:48:17;4.43;;;3.58;;
769;SDS011;368;48.698;9.116;2023-02-26T04:50:44;4.80;;;3.58;;
769;SDS011;368;48.698;9.116;2023-02-26T04:53:12;4.25;;;3.70;;
769;SDS011;368;48.698;9.116;2023-02-26T04:55:40;4.68;;;3.42;;
769;SDS011;368;48.698;9.116;2023-02-26T04:58:07;4.20;;;3.35;;
769;SDS011;368;48.698;9.116;2023-02-26T05:00:34;6.30;;;4.18;;
769;SDS011;368;48.698;9.116;2023-02-26T05:03:01;4.43;;;3.35;;
769;SDS011;368;48.698;9.116;2023-02-26T05:05:28;5.68;;;3.58;;
769;SDS011;368;48.698;9.116;2023-02-26T05:07:55;4.53;;;4.05;;
769;SDS011;368;48.698;9.116;2023-02-26T05:10:22;6.40;;;3.65;;
769;SDS011;368;48.698;9.116;2023-02-26T05:12:51;6.25;;;2.90;;
769;SDS011;368;48.698;9.116;2023-02-26T05:15:18;4.63;;;3.72;;
769;SDS011;368;48.698;9.116;2023-02-26T05:17:45;5.30;;;3.85;;
769;SDS011;368;48.698;9.116;2023-02-26T05:20:12;4.15;;;3.35;;
769;SDS011;368;48.698;9.116;2023-02-26T05:22:39;5.20;;;3.55;;
769;SDS011;368;48.698;9.116;2023-02-26T05:25:07;4.63;;;3.97;;
769;SDS011;368;48.698;9.116;2023-02-26T05:27:36;4.82;;;3.97;;
769;SDS011;368;48.698;9.116;2023-02-26T05:30:06;6.68;;;4.18;;
769;SDS011;368;48.698;9.116;2023-02-26T05:32:34;4.95;;;3.20;;
769;SDS011;368;48.698;9.116;2023-02-26T05:35:01;5.95;;;3.63;;
769;SDS011;368;48.698;9.116;2023-02-26T05:37:27;5.72;;;3.67;;
769;SDS011;368;48.698;9.116;2023-02-26T05:39:54;5.80;;;4.00;;
769;SDS011;368;48.698;9.116;2023-02-26T05:42:21;3.83;;;3.42;;
769;SDS011;368;48.698;9.116;2023-02-26T05:44:48;6.95;;;3.58;;
769;SDS011;368;48.698;9.116;2023-02-26T05:47:17;7.90;;;3.70;;
769;SDS011;368;48.698;9.116;2023-02-26T05:49:43;4.57;;;3.70;;
769;SDS011;368;48.698;9.116;2023-02-26T05:52:10;6.07;;;2.80;;
769;SDS011;368;48.698;9.116;2023-02-26T05:54:37;6.10;;;3.30;;
769;SDS011;368;48.698;9.116;2023-02-26T05:57:04;3.72;;;3.35;;
769;SDS011;368;48.698;9.116;2023-02-26T05:59:31;6.53;;;3.45;;
769;SDS011;368;48.698;9.116;2023-02-26T06:01:57;5.22;;;3.88;;
769;SDS011;368;48.698;9.116;2023-02-26T06:04:26;7.10;;;4.05;;
769;SDS011;368;48.698;9.116;2023-02-26T06:06:52;3.33;;;3.10;;
769;SDS011;368;48.698;9.116;2023-02-26T06:09:19;8.98;;;3.70;;
769;SDS011;368;48.698;9.116;2023-02-26T06:11:46;6.20;;;3.50;;
769;SDS011;368;48.698;9.116;2023-02-26T06:14:13;4.97;;;3.63;;
769;SDS011;368;48.698;9.116;2023-02-26T06:16:40;4.72;;;3.80;;
769;SDS011;368;48.698;9.116;2023-02-26T06:19:06;6.90;;;3.38;;
769;SDS011;368;48.698;9.116;2023-02-26T06:21:34;6.95;;;4.55;;
769;SDS011;368;48.698;9.116;2023-02-26T06:24:01;5.55;;;3.85;;
769;SDS011;368;48.698;9.116;2023-02-26T06:26:28;6.28;;;3.25;;
769;SDS011;368;48.698;9.116;2023-02-26T06:28:55;5.13;;;4.15;;
769;SDS011;368;48.698;9.116;2023-02-26T06:31:21;5.05;;;3.10;;
769;SDS011;368;48.698;9.116;2023-02-26T06:33:48;6.70;;;3.92;;
769;SDS011;368;48.698;9.116;2023-02-26T06:36:15;5.63;;;3.85;;
769;SDS011;368;48.698;9.116;2023-02-26T06:38:43;8.88;;;3.85;;
769;SDS011;368;48.698;9.116;2023-02-26T06:41:10;4.90;;;4.45;;
769;SDS011;368;48.698;9.116;2023-02-26T06:43:37;4.00;;;3.70;;
769;SDS011;368;48.698;9.116;2023-02-26T06:46:04;4.05;;;3.72;;
769;SDS011;368;48.698;9.116;2023-02-26T06:48:31;3.70;;;3.40;;
769;SDS011;368;48.698;9.116;2023-02-26T06:50:58;9.73;;;3.97;;
769;SDS011;368;48.698;9.116;2023-02-26T06:53:25;4.97;;;4.05;;
769;SDS011;368;48.698;9.116;2023-02-26T06:55:53;4.75;;;4.28;;
769;SDS011;368;48.698;9.116;2023-02-26T06:58:19;4.20;;;3.35;;
769;SDS011;368;48.698;9.116;2023-02-26T07:00:48;4.05;;;3.58;;
769;SDS011;368;48.698;9.116;2023-02-26T07:03:15;5.35;;;4.00;;
769;SDS011;368;48.698;9.116;2023-02-26T07:05:43;4.25;;;3.72;;
769;SDS011;368;48.698;9.116;2023-02-26T07:08:10;6.95;;;4.30;;
769;SDS011;368;48.698;9.116;2023-02-26T07:10:37;10.18;;;3.60;;
769;SDS011;368;48.698;9.116;2023-02-26T07:13:06;8.35;;;4.18;;
769;SDS011;368;48.698;9.116;2023-02-26T07:15:33;5.03;;;3.38;;
769;SDS011;368;48.698;9.116;2023-02-26T07:18:00;6.20;;;4.07;;
769;SDS011;368;48.698;9.116;2023-02-26T07:20:27;4.60;;;3.97;;
769;SDS011;368;48.698;9.116;2023-02-26T07:22:54;6.63;;;3.75;;
769;SDS011;368;48.698;9.116;2023-02-26T07:25:21;5.45;;;3.85;;
769;SDS011;368;48.698;9.116;2023-02-26T07:27:48;7.05;;;4.32;;
769;SDS011;368;48.698;9.116;2023-02-26T07:30:16;6.10;;;4.00;;
769;SDS011;368;48.698;9.116;2023-02-26T07:32:44;5.28;;;3.92;;
769;SDS011;368;48.698;9.116;2023-02-26T07:35:10;4.47;;;3.33;;
769;SDS011;368;48.698;9.116;2023-02-26T07:37:37;4.32;;;3.53;;
769;SDS011;368;48.698;9.116;2023-02-26T07:40:04;4.05;;;3.35;;
769;SDS011;368;48.698;9.116;2023-02-26T07:42:32;10.68;;;4.15;;
769;SDS011;368;48.698;9.116;2023-02-26T07:44:59;4.60;;;3.47;;
769;SDS011;368;48.698;9.116;2023-02-26T07:47:27;4.60;;;3.65;;
769;SDS011;368;48.698;9.116;2023-02-26T07:49:54;6.97;;;3.78;;
769;SDS011;368;48.698;9.116;2023-02-26T07:52:21;4.15;;;3.53;;
769;SDS011;368;48.698;9.116;2023-02-26T07:54:48;4.35;;;3.45;;
769;SDS011;368;48.698;9.116;2023-02-26T07:57:15;9.80;;;3.70;;
769;SDS011;368;48.698;9.116;2023-02-26T07:59:42;5.57;;;4.10;;
769;SDS011;368;48.698;9.116;2023-02-26T08:02:09;4.35;;;3.80;;
769;SDS011;368;48.698;9.116;2023-02-26T08:04:38;6.70;;;3.97;;
769;SDS011;368;48.698;9.116;2023-02-26T08:07:21;4.95;;;2.78;;
769;SDS011;368;48.698;9.116;2023-02-26T08:09:49;3.47;;;3.03;;
769;SDS011;368;48.698;9.116;2023-02-26T08:12:15;3.38;;;2.83;;
769;SDS011;368;48.698;9.116;2023-02-26T08:14:42;5.32;;;3.22;;
769;SDS011;368;48.698;9.116;2023-02-26T08:17:09;9.95;;;3.67;;
769;SDS011;368;48.698;9.116;2023-02-26T08:19:36;3.15;;;2.90;;
769;SDS011;368;48.698;9.116;2023-02-26T08:22:03;4.13;;;3.03;;
769;SDS011;368;48.698;9.116;2023-02-26T08:24:31;4.60;;;3.40;;
769;SDS011;368;48.698;9.116;2023-02-26T08:26:58;4.28;;;3.28;;
769;SDS011;368;48.698;9.116;2023-02-26T08:29:25;4.82;;;3.60;;
769;SDS011;368;48.698;9.116;2023-02-26T08:31:52;3.30;;;2.90;;
769;SDS011;368;48.698;9.116;2023-02-26T08:34:18;3.90;;;3.35;;
769;SDS011;368;48.698;9.116;2023-02-26T08:36:45;3.10;;;2.90;;
769;SDS011;368;48.698;9.116;2023-02-26T08:39:12;4.07;;;3.17;;
769;SDS011;368;48.698;9.116;2023-02-26T08:41:40;3.67;;;2.83;;
769;SDS011;368;48.698;9.116;2023-02-26T08:44:07;2.63;;;2.22;;
769;SDS011;368;48.698;9.116;2023-02-26T08:46:34;5.40;;;3.70;;
769;SDS011;368;48.698;9.116;2023-02-26T08:49:01;4.82;;;3.25;;
769;SDS011;368;48.698;9.116;2023-02-26T08:51:27;4.75;;;2.75;;
769;SDS011;368;48.698;9.116;2023-02-26T08:53:54;2.90;;;2.35;;
769;SDS011;368;48.698;9.116;2023-02-26T08:56:21;2.53;;;2.33;;
769;SDS011;368;48.698;9.116;2023-02-26T08:58:49;3.88;;;3.47;;
769;SDS011;368;48.698;9.116;2023-02-26T09:01:16;3.20;;;3.00;;
769;SDS011;368;48.698;9.116;2023-02-26T09:03:43;4.30;;;3.30;;
769;SDS011;368;48.698;9.116;2023-02-26T09:06:10;4.00;;;3.60;;
769;SDS011;368;48.698;9.116;2023-02-26T09:08:36;6.10;;;3.10;;
769;SDS011;368;48.698;9.116;2023-02-26T09:11:03;3.92;;;3.47;;
769;SDS011;368;48.698;9.116;2023-02-26T09:13:30;3.20;;;2.92;;
769;SDS011;368;48.698;9.116;2023-02-26T09:15:58;3.50;;;3.20;;
769;SDS011;368;48.698;9.116;2023-02-26T09:18:25;4.45;;;3.72;;
769;SDS011;368;48.698;9.116;2023-02-26T09:20:52;4.13;;;3.28;;
769;SDS011;368;48.698;9.116;2023-02-26T09:23:19;3.72;;;2.95;;
769;SDS011;368;48.698;9.116;2023-02-26T09:25:45;4.03;;;3.60;;
769;SDS011;368;48.698;9.116;2023-02-26T09:28:17;4.53;;;4.20;;
769;SDS011;368;48.698;9.116;2023-02-26T09:30:44;4.93;;;3.78;;
769;SDS011;368;48.698;9.116;2023-02-26T09:33:12;6.05;;;3.45;;
769;SDS011;368;48.698;9.116;2023-02-26T09:35:39;4.25;;;3.40;;
769;SDS011;368;48.698;9.116;2023-02-26T09:38:06;3.13;;;2.88;;
769;SDS011;368;48.698;9.116;2023-02-26T09:40:36;3.13;;;2.83;;
769;SDS011;368;48.698;9.116;2023-02-26T09:43:18;3.67;;;2.92;;
769;SDS011;368;48.698;9.116;2023-02-26T09:45:54;3.38;;;2.85;;
769;SDS011;368;48.698;9.116;2023-02-26T09:48:26;4.65;;;3.63;;
769;SDS011;368;48.698;9.116;2023-02-26T09:50:55;4.03;;;3.30;;
769;SDS011;368;48.698;9.116;2023-02-26T09:53:24;7.50;;;2.65;;
769;SDS011;368;48.698;9.116;2023-02-26T09:55:56;4.75;;;2.63;;
769;SDS011;368;48.698;9.116;2023-02-26T09:58:28;5.55;;;2.80;;
769;SDS011;368;48.698;9.116;2023-02-26T10:00:58;3.15;;;2.42;;
769;SDS011;368;48.698;9.116;2023-02-26T10:03:33;2.97;;;2.50;;
769;SDS011;368;48.698;9.116;2023-02-26T10:06:17;2.40;;;2.30;;
769;SDS011;368;48.698;9.116;2023-02-26T10:09:00;4.60;;;2.63;;
769;SDS011;368;48.698;9.116;2023-02-26T10:11:35;2.10;;;1.88;;
769;SDS011;368;48.698;9.116;2023-02-26T10:14:13;3.15;;;2.90;;
769;SDS011;368;48.698;9.116;2023-02-26T10:16:44;2.60;;;2.40;;
769;SDS011;368;48.698;9.116;2023-02-26T10:19:17;2.90;;;2.70;;
769;SDS011;368;48.698;9.116;2023-02-26T10:21:48;5.72;;;3.63;;
769;SDS011;368;48.698;9.116;2023-02-26T10:24:18;7.72;;;3.15;;
769;SDS011;368;48.698;9.116;2023-02-26T10:26:50;5.32;;;3.00;;
769;SDS011;368;48.698;9.116;2023-02-26T10:29:23;6.45;;;3.15;;
769;SDS011;368;48.698;9.116;2023-02-26T10:32:00;4.72;;;3.22;;
769;SDS011;368;48.698;9.116;2023-02-26T10:34:35;2.50;;;2.30;;
769;SDS011;368;48.698;9.116;2023-02-26T10:37:10;3.47;;;3.15;;
769;SDS011;368;48.698;9.116;2023-02-26T10:39:42;3.25;;;2.95;;
769;SDS011;368;48.698;9.116;2023-02-26T10:42:14;2.92;;;2.70;;
769;SDS011;368;48.698;9.116;2023-02-26T10:44:46;3.25;;;2.88;;
769;SDS011;368;48.698;9.116;2023-02-26T10:47:23;2.97;;;2.70;;
769;SDS011;368;48.698;9.116;2023-02-26T10:50:03;2.83;;;2.70;;
769;SDS011;368;48.698;9.116;2023-02-26T10:52:31;3.85;;;2.67;;
769;SDS011;368;48.698;9.116;2023-02-26T10:55:23;3.88;;;3.40;;
769;SDS011;368;48.698;9.116;2023-02-26T10:57:55;4.60;;;3.17;;
769;SDS011;368;48.698;9.116;2023-02-26T11:00:28;3.75;;;3.42;;
769;SDS011;368;48.698;9.116;2023-02-26T11:02:55;2.60;;;2.35;;
769;SDS011;368;48.698;9.116;2023-02-26T11:05:24;3.60;;;3.30;;
769;SDS011;368;48.698;9.116;2023-02-26T11:07:54;3.10;;;2.80;;
769;SDS011;368;48.698;9.116;2023-02-26T11:10:22;3.70;;;3.30;;
769;SDS011;368;48.698;9.116;2023-02-26T11:12:51;4.40;;;2.90;;
769;SDS011;368;48.698;9.116;2023-02-26T11:15:19;2.70;;;2.50;;
769;SDS011;368;48.698;9.116;2023-02-26T11:17:48;3.08;;;2.88;;
769;SDS011;368;48.698;9.116;2023-02-26T11:20:25;2.73;;;2.50;;
769;SDS011;368;48.698;9.116;2023-02-26T11:22:57;3.53;;;2.85;;
769;SDS011;368;48.698;9.116;2023-02-26T11:25:26;5.10;;;3.33;;
769;SDS011;368;48.698;9.116;2023-02-26T11:27:58;3.13;;;2.60;;
769;SDS011;368;48.698;9.116;2023-02-26T11:30:29;3.50;;;3.13;;
769;SDS011;368;48.698;9.116;2023-02-26T11:32:58;7.53;;;2.33;;
769;SDS011;368;48.698;9.116;2023-02-26T11:35:33;2.85;;;2.65;;
769;SDS011;368;48.698;9.116;2023-02-26T11:38:00;2.72;;;2.53;;
769;SDS011;368;48.698;9.116;2023-02-26T11:40:31;2.92;;;2.72;;
769;SDS011;368;48.698;9.116;2023-02-26T11:43:02;2.80;;;2.60;;
769;SDS011;368;48.698;9.116;2023-02-26T11:45:33;2.30;;;2.20;;
769;SDS011;368;48.698;9.116;2023-02-26T11:48:01;2.90;;;2.10;;
769;SDS011;368;48.698;9.116;2023-02-26T11:50:35;7.63;;;2.50;;
769;SDS011;368;48.698;9.116;2023-02-26T11:53:06;2.30;;;2.20;;
769;SDS011;368;48.698;9.116;2023-02-26T11:55:43;2.50;;;2.13;;
769;SDS011;368;48.698;9.116;2023-02-26T11:58:16;2.90;;;2.47;;
769;SDS011;368;48.698;9.116;2023-02-26T12:00:47;2.70;;;2.50;;
769;SDS011;368;48.698;9.116;2023-02-26T12:03:18;3.50;;;2.77;;
769;SDS011;368;48.698;9.116;2023-02-26T12:05:48;3.08;;;2.78;;
769;SDS011;368;48.698;9.116;2023-02-26T12:08:19;2.17;;;2.00;;
769;SDS011;368;48.698;9.116;2023-02-26T12:10:53;2.47;;;2.27;;
769;SDS011;368;48.698;9.116;2023-02-26T12:13:36;2.70;;;2.43;;
769;SDS011;368;48.698;9.116;2023-02-26T12:16:13;2.27;;;2.17;;
769;SDS011;368;48.698;9.116;2023-02-26T12:18:48;5.30;;;2.37;;
769;SDS011;368;48.698;9.116;2023-02-26T12:21:35;2.47;;;2.27;;
769;SDS011;368;48.698;9.116;2023-02-26T12:24:33;3.00;;;2.80;;
769;SDS011;368;48.698;9.116;2023-02-26T12:27:12;2.88;;;2.67;;
769;SDS011;368;48.698;9.116;2023-02-26T12:29:49;2.47;;;2.28;;
769;SDS011;368;48.698;9.116;2023-02-26T12:32:34;2.97;;;2.63;;
769;SDS011;368;48.698;9.116;2023-02-26T12:35:25;3.80;;;2.67;;
769;SDS011;368;48.698;9.116;2023-02-26T12:38:11;2.03;;;1.93;;
769;SDS011;368;48.698;9.116;2023-02-26T12:43:47;9.00;;;2.50;;
769;SDS011;368;48.698;9.116;2023-02-26T12:49:21;2.23;;;2.03;;
769;SDS011;368;48.698;9.116;2023-02-26T12:52:19;2.53;;;2.33;;
769;SDS011;368;48.698;9.116;2023-02-26T12:55:12;2.80;;;2.40;;
769;SDS011;368;48.698;9.116;2023-02-26T12:58:02;3.05;;;1.90;;
769;SDS011;368;48.698;9.116;2023-02-26T13:00:54;4.00;;;1.80;;
769;SDS011;368;48.698;9.116;2023-02-26T13:03:50;2.65;;;2.45;;
769;SDS011;368;48.698;9.116;2023-02-26T13:06:43;3.87;;;2.07;;
769;SDS011;368;48.698;9.116;2023-02-26T13:09:32;1.90;;;1.80;;
769;SDS011;368;48.698;9.116;2023-02-26T13:12:12;6.38;;;3.05;;
769;SDS011;368;48.698;9.116;2023-02-26T13:14:49;2.93;;;2.33;;
769;SDS011;368;48.698;9.116;2023-02-26T13:17:21;2.20;;;2.10;;
769;SDS011;368;48.698;9.116;2023-02-26T13:19:54;3.40;;;2.50;;
769;SDS011;368;48.698;9.116;2023-02-26T13:22:24;3.10;;;2.90;;
769;SDS011;368;48.698;9.116;2023-02-26T13:24:55;1.87;;;1.77;;
769;SDS011;368;48.698;9.116;2023-02-26T13:27:28;2.77;;;2.10;;
769;SDS011;368;48.698;9.116;2023-02-26T13:30:03;2.92;;;2.25;;
769;SDS011;368;48.698;9.116;2023-02-26T13:32:39;2.42;;;2.20;;
769;SDS011;368;48.698;9.116;2023-02-26T13:35:15;2.28;;;2.17;;
769;SDS011;368;48.698;9.116;2023-02-26T13:37:46;2.15;;;1.88;;
769;SDS011;368;48.698;9.116;2023-02-26T13:40:22;2.92;;;1.58;;
769;SDS011;368;48.698;9.116;2023-02-26T13:43:23;1.80;;;1.70;;
769;SDS011;368;48.698;9.116;2023-02-26T13:46:00;1.50;;;1.40;;
769;SDS011;368;48.698;9.116;2023-02-26T13:48:48;1.70;;;1.60;;
769;SDS011;368;48.698;9.116;2023-02-26T13:51:24;2.37;;;2.20;;
769;SDS011;368;48.698;9.116;2023-02-26T13:53:59;2.00;;;1.67;;
769;SDS011;368;48.698;9.116;2023-02-26T13:59:27;1.38;;;1.27;;
769;SDS011;368;48.698;9.116;2023-02-26T14:01:57;1.53;;;1.43;;
769;SDS011;368;48.698;9.116;2023-02-26T14:04:28;1.47;;;1.37;;
769;SDS011;368;48.698;9.116;2023-02-26T14:06:56;1.60;;;1.50;;
769;SDS011;368;48.698;9.116;2023-02-26T14:12:23;1.57;;;1.30;;
769;SDS011;368;48.698;9.116;2023-02-26T14:15:25;1.00;;;1.00;;
769;SDS011;368;48.698;9.116;2023-02-26T14:17:59;1.43;;;1.33;;
769;SDS011;368;48.698;9.116;2023-02-26T14:20:27;1.40;;;1.30;;
769;SDS011;368;48.698;9.116;2023-02-26T14:23:10;1.60;;;1.50;;
769;SDS011;368;48.698;9.116;2023-02-26T14:25:46;1.67;;;1.57;;
769;SDS011;368;48.698;9.116;2023-02-26T14:31:23;2.30;;;1.03;;
769;SDS011;368;48.698;9.116;2023-02-26T14:33:58;1.10;;;1.00;;
769;SDS011;368;48.698;9.116;2023-02-26T14:36:35;1.57;;;1.47;;
769;SDS011;368;48.698;9.116;2023-02-26T14:39:06;2.30;;;1.63;;
769;SDS011;368;48.698;9.116;2023-02-26T14:41:38;1.30;;;1.20;;
769;SDS011;368;48.698;9.116;2023-02-26T14:44:09;1.80;;;1.70;;
769;SDS011;368;48.698;9.116;2023-02-26T14:46:41;2.20;;;1.83;;
769;SDS011;368;48.698;9.116;2023-02-26T14:49:16;1.50;;;1.40;;
769;SDS011;368;48.698;9.116;2023-02-26T14:51:50;1.43;;;1.33;;
769;SDS011;368;48.698;9.116;2023-02-26T14:54:31;1.90;;;1.60;;
769;SDS011;368;48.698;9.116;2023-02-26T14:57:07;2.90;;;1.50;;
769;SDS011;368;48.698;9.116;2023-02-26T14:59:52;1.70;;;1.60;;
769;SDS011;368;48.698;9.116;2023-02-26T15:02:43;3.30;;;1.67;;
769;SDS011;368;48.698;9.116;2023-02-26T15:05:31;1.30;;;1.20;;
769;SDS011;368;48.698;9.116;2023-02-26T15:08:11;1.30;;;1.20;;
769;SDS011;368;48.698;9.116;2023-02-26T15:11:05;1.30;;;1.20;;
769;SDS011;368;48.698;9.116;2023-02-26T15:13:51;1.27;;;1.10;;
769;SDS011;368;48.698;9.116;2023-02-26T15:16:44;1.47;;;1.10;;
769;SDS011;368;48.698;9.116;2023-02-26T15:19:28;2.07;;;1.40;;
769;SDS011;368;48.698;9.116;2023-02-26T15:22:08;1.80;;;1.30;;
769;SDS011;368;48.698;9.116;2023-02-26T15:24:46;1.70;;;1.37;;
769;SDS011;368;48.698;9.116;2023-02-26T15:27:14;1.53;;;1.43;;
769;SDS011;368;48.698;9.116;2023-02-26T15:29:44;1.23;;;1.13;;
769;SDS011;368;48.698;9.116;2023-02-26T15:32:15;1.77;;;1.67;;
769;SDS011;368;48.698;9.116;2023-02-26T15:34:54;2.40;;;1.47;;
769;SDS011;368;48.698;9.116;2023-02-26T15:37:25;1.77;;;1.67;;
769;SDS011;368;48.698;9.116;2023-02-26T15:39:54;2.80;;;1.43;;
769;SDS011;368;48.698;9.116;2023-02-26T15:42:21;1.40;;;1.30;;
769;SDS011;368;48.698;9.116;2023-02-26T15:44:56;2.00;;;1.50;;
769;SDS011;368;48.698;9.116;2023-02-26T15:47:25;3.83;;;2.40;;
769;SDS011;368;48.698;9.116;2023-02-26T15:49:55;2.40;;;1.90;;
769;SDS011;368;48.698;9.116;2023-02-26T15:52:23;2.63;;;1.90;;
769;SDS011;368;48.698;9.116;2023-02-26T15:54:53;5.10;;;1.70;;
769;SDS011;368;48.698;9.116;2023-02-26T15:57:23;2.07;;;1.50;;
769;SDS011;368;48.698;9.116;2023-02-26T15:59:51;2.00;;;1.37;;
769;SDS011;368;48.698;9.116;2023-02-26T16:02:21;2.03;;;1.83;;
769;SDS011;368;48.698;9.116;2023-02-26T16:04:51;2.40;;;1.60;;
769;SDS011;368;48.698;9.116;2023-02-26T16:07:19;1.80;;;1.70;;
769;SDS011;368;48.698;9.116;2023-02-26T16:09:49;1.83;;;1.73;;
769;SDS011;368;48.698;9.116;2023-02-26T16:12:18;1.17;;;1.07;;
769;SDS011;368;48.698;9.116;2023-02-26T16:14:47;1.47;;;1.37;;
769;SDS011;368;48.698;9.116;2023-02-26T16:17:22;1.10;;;0.90;;
769;SDS011;368;48.698;9.116;2023-02-26T16:19:51;2.30;;;1.40;;
769;SDS011;368;48.698;9.116;2023-02-26T16:22:21;1.83;;;1.10;;
769;SDS011;368;48.698;9.116;2023-02-26T16:24:51;1.00;;;0.90;;
769;SDS011;368;48.698;9.116;2023-02-26T16:27:20;1.70;;;1.47;;
769;SDS011;368;48.698;9.116;2023-02-26T16:29:52;1.47;;;1.37;;